Time;durP1;ratioP1;P1;durP2;ratioP2;P2;SDS_P1;SDS_P2;PMS_P1;PMS_P2;Temp;Humidity;BMP_temperature;BMP_pressure;BME280_temperature;BME280_humidity;BME280_pressure;Samples;Min_cycle;Max_cycle;Signal;HPM_P1;HPM_P2
2023/07/16 00:03:07;;;;;;;4.00;2.40;;;26.40;33.30;;;;;;21080553;28;19920;-58
2023/07/16 00:13:08;;;;;;;4.90;2.17;;;26.40;33.30;;;;;;21079258;28;20397;-60
2023/07/16 00:23:09;;;;;;;2.93;1.73;;;26.40;33.50;;;;;;21077264;28;20084;-57
2023/07/16 00:33:10;;;;;;;4.33;1.60;;;26.10;34.10;;;;;;21078664;28;20055;-57
2023/07/16 00:43:11;;;;;;;3.07;1.60;;;26.00;34.30;;;;;;21078123;28;20422;-57
2023/07/16 00:53:12;;;;;;;4.20;1.40;;;25.90;34.40;;;;;;21093369;28;20123;-57
2023/07/16 01:03:14;;;;;;;5.43;1.98;;;25.90;34.40;;;;;;21092764;28;20431;-57
2023/07/16 01:13:15;;;;;;;3.22;2.00;;;25.70;35.00;;;;;;21091822;28;20051;-57
2023/07/16 01:23:19;;;;;;;3.53;2.20;;;25.60;35.00;;;;;;21090433;28;20055;-57
2023/07/16 01:33:20;;;;;;;2.63;1.52;;;25.60;35.10;;;;;;21090308;28;20485;-57
2023/07/16 01:43:21;;;;;;;;;;;25.60;35.20;;;;;;21090094;28;20072;-56
2023/07/16 01:53:22;;;;;;;3.85;1.60;;;25.40;35.30;;;;;;21088861;28;19927;-56
2023/07/16 02:03:23;;;;;;;3.13;1.80;;;25.30;35.40;;;;;;21087518;28;20047;-57
2023/07/16 02:13:23;;;;;;;4.60;3.10;;;25.30;35.90;;;;;;21087231;28;20063;-57
2023/07/16 02:23:24;;;;;;;4.80;3.00;;;25.10;36.60;;;;;;21085983;28;20131;-56
2023/07/16 02:33:25;;;;;;;4.83;3.10;;;25.00;36.80;;;;;;21085686;28;20040;-57
2023/07/16 02:43:25;;;;;;;2.53;1.70;;;24.70;37.50;;;;;;21084903;28;20068;-56
2023/07/16 02:53:26;;;;;;;4.50;1.67;;;24.60;37.60;;;;;;21084127;28;20075;-57
2023/07/16 03:03:27;;;;;;;4.88;2.25;;;24.30;37.80;;;;;;21082092;28;20048;-56
2023/07/16 03:13:28;;;;;;;3.95;1.92;;;24.10;38.40;;;;;;21082697;28;20048;-56
2023/07/16 03:23:28;;;;;;;3.53;2.38;;;23.90;38.90;;;;;;21080380;28;20052;-57
2023/07/16 03:33:29;;;;;;;7.05;2.10;;;23.70;39.30;;;;;;21081410;28;20489;-57
2023/07/16 03:43:30;;;;;;;3.50;1.67;;;23.60;39.90;;;;;;21080924;28;20050;-57
2023/07/16 03:53:30;;;;;;;2.75;1.90;;;23.50;40.40;;;;;;21080381;28;20094;-58
2023/07/16 04:03:31;;;;;;;4.10;1.60;;;23.30;40.70;;;;;;21080134;28;20048;-57
2023/07/16 04:13:32;;;;;;;3.83;1.80;;;23.20;40.90;;;;;;21079478;28;20397;-57
2023/07/16 04:23:33;;;;;;;3.72;1.67;;;23.20;40.70;;;;;;21087745;28;20520;-57
2023/07/16 04:33:34;;;;;;;5.05;1.83;;;23.20;40.50;;;;;;21095396;28;20044;-56
2023/07/16 04:43:35;;;;;;;4.22;2.10;;;23.10;40.50;;;;;;21094794;28;20044;-57
2023/07/16 04:53:35;;;;;;;4.05;1.80;;;23.10;40.80;;;;;;21092699;28;20110;-57
2023/07/16 05:03:36;;;;;;;3.63;2.00;;;23.10;40.90;;;;;;21091805;28;20470;-57
2023/07/16 05:13:37;;;;;;;3.53;1.98;;;22.90;41.30;;;;;;21092652;28;20431;-57
2023/07/16 05:23:38;;;;;;;2.45;1.83;;;22.90;41.20;;;;;;21091367;28;20177;-56
2023/07/16 05:33:38;;;;;;;7.22;1.98;;;22.90;41.10;;;;;;21089423;28;20074;-57
2023/07/16 05:43:39;;;;;;;4.53;1.55;;;22.90;41.00;;;;;;21089691;28;20040;-57
2023/07/16 05:53:40;;;;;;;3.60;1.73;;;23.00;40.50;;;;;;21089089;28;20055;-57
2023/07/16 06:03:41;;;;;;;3.42;1.70;;;23.00;40.60;;;;;;21088223;28;20116;-57
2023/07/16 06:13:42;;;;;;;7.32;2.22;;;23.20;40.40;;;;;;21087205;28;20043;-57
2023/07/16 06:23:43;;;;;;;4.30;2.30;;;23.20;40.40;;;;;;21085224;28;20067;-57
2023/07/16 06:33:43;;;;;;;4.10;2.05;;;23.30;40.40;;;;;;21084252;28;20098;-57
2023/07/16 06:43:44;;;;;;;2.97;1.30;;;23.60;38.60;;;;;;21084227;28;20375;-57
2023/07/16 06:53:45;;;;;;;3.70;1.40;;;23.80;37.70;;;;;;21082128;28;20047;-57
2023/07/16 07:03:46;;;;;;;3.20;1.50;;;24.10;37.30;;;;;;21082212;28;20055;-57
2023/07/16 07:13:46;;;;;;;2.05;1.20;;;24.70;36.60;;;;;;21082369;28;20477;-57
2023/07/16 07:23:47;;;;;;;3.47;1.33;;;25.30;35.40;;;;;;21081020;28;20162;-58
2023/07/16 07:33:48;;;;;;;3.17;1.93;;;25.70;34.80;;;;;;21079594;28;20132;-58
2023/07/16 07:43:48;;;;;;;3.77;2.03;;;26.20;34.10;;;;;;21080139;28;20476;-58
2023/07/16 07:53:49;;;;;;;4.73;1.60;;;26.70;33.10;;;;;;21078218;28;20040;-57
2023/07/16 08:03:50;;;;;;;5.53;1.70;;;27.00;33.10;;;;;;21077709;28;20051;-57
2023/07/16 08:13:51;;;;;;;5.30;1.80;;;27.30;32.40;;;;;;21076806;28;20485;-57
2023/07/16 08:23:52;;;;;;;21.17;3.50;;;27.40;32.40;;;;;;21077119;28;20513;-57
2023/07/16 08:33:52;;;;;;;;;;;27.80;31.90;;;;;;21078241;28;20082;-56
2023/07/16 08:43:54;;;;;;;4.28;1.70;;;28.20;31.40;;;;;;21076427;28;19923;-56
2023/07/16 08:53:55;;;;;;;4.30;2.85;;;28.50;30.80;;;;;;21077639;28;20036;-57
2023/07/16 09:03:56;;;;;;;6.50;2.47;;;28.80;30.50;;;;;;21075727;28;20046;-58
2023/07/16 09:13:57;;;;;;;5.47;2.60;;;28.80;30.60;;;;;;21090182;28;20085;-56
2023/07/16 09:23:58;;;;;;;2.92;1.92;;;29.10;30.30;;;;;;21089814;28;20055;-56
2023/07/16 09:33:58;;;;;;;3.80;2.00;;;29.20;29.90;;;;;;21089894;28;20044;-58
2023/07/16 09:43:59;;;;;;;3.17;1.70;;;29.10;29.90;;;;;;21089542;28;20058;-58
2023/07/16 09:54:01;;;;;;;5.25;2.30;;;29.20;30.10;;;;;;21086897;28;20051;-58
2023/07/16 10:04:16;;;;;;;7.07;2.53;;;29.60;30.20;;;;;;21086028;28;20044;-57
2023/07/16 10:14:25;;;;;;;3.60;1.92;;;29.80;30.00;;;;;;21086499;28;20051;-57
2023/07/16 10:24:27;;;;;;;2.78;2.10;;;30.10;29.30;;;;;;21083468;28;20044;-57
2023/07/16 10:34:28;;;;;;;2.33;1.80;;;30.30;29.50;;;;;;21084981;28;20036;-56
2023/07/16 10:44:29;;;;;;;3.03;1.60;;;30.40;29.00;;;;;;21084601;28;20044;-56
2023/07/16 10:54:30;;;;;;;6.68;2.22;;;30.80;28.70;;;;;;21081851;28;20043;-57
2023/07/16 11:04:35;;;;;;;3.22;2.55;;;30.80;28.40;;;;;;21082509;28;20059;-57
2023/07/16 11:14:36;;;;;;;4.18;2.35;;;31.10;27.10;;;;;;21082213;28;20050;-58
2023/07/16 11:24:41;;;;;;;4.63;3.10;;;31.30;26.80;;;;;;21081828;28;20063;-58
2023/07/16 11:34:56;;;;;;;4.25;1.80;;;31.40;26.40;;;;;;21078396;28;20048;-58
2023/07/16 11:44:58;;;;;;;4.60;2.47;;;31.30;25.40;;;;;;21080095;28;20107;-57
2023/07/16 11:55:05;;;;;;;3.75;1.95;;;31.30;26.20;;;;;;21078275;28;20097;-57
2023/07/16 12:05:06;;;;;;;8.63;6.75;;;31.60;25.90;;;;;;21079360;28;20052;-56
2023/07/16 12:15:08;;;;;;;4.90;2.80;;;31.80;25.70;;;;;;21079128;28;20488;-57
2023/07/16 12:25:09;;;;;;;3.30;2.10;;;32.20;24.70;;;;;;21077781;28;20063;-57
2023/07/16 12:35:10;;;;;;;5.45;2.30;;;32.00;24.20;;;;;;21078565;28;20402;-56
2023/07/16 12:45:10;;;;;;;3.67;2.10;;;32.30;23.80;;;;;;21087769;28;20141;-57
2023/07/16 12:55:12;;;;;;;2.85;1.90;;;32.30;23.90;;;;;;21093284;28;20072;-57
2023/07/16 13:05:13;;;;;;;4.68;2.60;;;32.40;22.50;;;;;;21091665;28;20044;-56
2023/07/16 13:15:14;;;;;;;5.35;2.13;;;32.30;23.20;;;;;;21091952;28;20500;-56
2023/07/16 13:25:15;;;;;;;3.10;2.35;;;32.30;23.10;;;;;;21091543;28;20063;-56
2023/07/16 13:35:16;;;;;;;5.03;2.15;;;32.60;22.50;;;;;;21088879;28;20054;-55
2023/07/16 13:45:16;;;;;;;5.60;3.05;;;32.70;23.10;;;;;;21089251;28;20490;-56
2023/07/16 13:55:17;;;;;;;4.40;2.35;;;32.70;23.10;;;;;;21087848;28;20055;-56
2023/07/16 14:05:19;;;;;;;3.85;3.10;;;32.90;22.50;;;;;;21087621;28;20051;-56
2023/07/16 14:15:20;;;;;;;5.18;2.50;;;33.00;22.30;;;;;;20917370;28;20484;-56
2023/07/16 14:25:21;;;;;;;2.85;2.25;;;33.00;22.10;;;;;;20918516;28;20439;-56
2023/07/16 14:35:22;;;;;;;2.90;2.22;;;33.10;22.30;;;;;;20918729;28;20074;-57
2023/07/16 14:45:22;;;;;;;4.30;2.30;;;33.20;22.50;;;;;;20918114;28;20045;-57
2023/07/16 14:55:23;;;;;;;6.07;2.53;;;33.30;22.60;;;;;;20917034;28;20076;-55
2023/07/16 15:05:24;;;;;;;3.72;2.20;;;33.50;22.30;;;;;;20916042;28;20041;-56
2023/07/16 15:15:25;;;;;;;2.88;2.00;;;33.50;22.40;;;;;;20914229;28;20049;-56
2023/07/16 15:25:26;;;;;;;3.40;2.22;;;33.50;22.50;;;;;;20913926;28;20475;-56
2023/07/16 15:35:26;;;;;;;6.57;3.20;;;33.50;22.30;;;;;;20912873;28;20040;-59
2023/07/16 15:45:27;;;;;;;5.35;2.55;;;33.50;22.60;;;;;;20913655;28;20512;-58
2023/07/16 15:55:28;;;;;;;3.35;2.30;;;33.80;21.90;;;;;;20912871;28;20084;-55
2023/07/16 16:05:30;;;;;;;3.55;2.33;;;33.60;21.80;;;;;;20912363;28;20455;-57
2023/07/16 16:15:31;;;;;;;3.28;2.65;;;33.60;21.70;;;;;;20914747;28;20545;-56
2023/07/16 16:25:33;;;;;;;5.13;2.90;;;33.70;21.50;;;;;;20928192;28;20520;-56
2023/07/16 16:35:41;;;;;;;2.97;2.20;;;33.60;22.20;;;;;;20927727;28;20076;-57
2023/07/16 16:45:43;;;;;;;3.45;2.63;;;33.60;21.40;;;;;;20926907;28;20045;-59
2023/07/16 16:55:44;;;;;;;6.53;2.47;;;33.60;21.50;;;;;;20926461;28;20045;-57
2023/07/16 17:05:48;;;;;;;4.55;2.20;;;33.60;21.30;;;;;;20924550;28;20051;-56
2023/07/16 17:15:49;;;;;;;3.25;2.40;;;33.60;21.10;;;;;;20925263;28;20049;-56
2023/07/16 17:25:50;;;;;;;5.75;2.60;;;33.50;21.40;;;;;;20924300;28;20091;-57
2023/07/16 17:35:51;;;;;;;6.40;2.70;;;33.40;21.20;;;;;;20923555;28;20055;-57
2023/07/16 17:45:56;;;;;;;3.35;2.25;;;33.50;21.50;;;;;;20922884;28;20041;-57
2023/07/16 17:55:57;;;;;;;4.13;2.42;;;33.40;21.60;;;;;;20921816;28;20456;-56
2023/07/16 18:05:58;;;;;;;5.53;2.67;;;33.30;21.00;;;;;;20921145;28;20053;-57
2023/07/16 18:15:59;;;;;;;6.30;2.55;;;33.10;21.60;;;;;;20920477;28;20462;-56
2023/07/16 18:26:00;;;;;;;7.72;3.65;;;33.00;21.90;;;;;;20918661;28;20060;-55
2023/07/16 18:36:00;;;;;;;4.60;3.10;;;32.80;22.00;;;;;;20918881;28;20091;-57
2023/07/16 18:46:01;;;;;;;6.32;3.00;;;32.80;21.60;;;;;;20917773;28;20047;-58
2023/07/16 18:56:03;;;;;;;4.47;2.75;;;32.70;21.70;;;;;;20917308;28;20049;-56
2023/07/16 19:06:04;;;;;;;5.78;2.80;;;32.60;21.70;;;;;;20916295;28;20057;-56
2023/07/16 19:16:05;;;;;;;6.63;5.53;;;32.50;21.60;;;;;;20916071;28;20049;-57
2023/07/16 19:26:06;;;;;;;5.50;3.30;;;32.20;22.10;;;;;;20914141;28;20079;-56
2023/07/16 19:36:07;;;;;;;5.00;3.03;;;32.10;22.30;;;;;;20914403;28;20041;-56
2023/07/16 19:46:08;;;;;;;6.30;2.80;;;31.80;22.20;;;;;;20914112;28;20076;-57
2023/07/16 19:56:08;;;;;;;4.80;2.90;;;31.60;22.10;;;;;;20911425;28;20064;-56
2023/07/16 20:06:10;;;;;;;3.95;3.15;;;31.30;22.80;;;;;;20913077;28;20044;-56
2023/07/16 20:16:11;;;;;;;6.07;3.55;;;31.10;22.80;;;;;;20912831;28;20041;-57
2023/07/16 20:26:11;;;;;;;3.53;2.75;;;30.90;23.30;;;;;;20911058;28;20092;-57
2023/07/16 20:36:12;;;;;;;4.13;2.90;;;30.80;23.00;;;;;;20912393;28;20482;-59
2023/07/16 20:46:14;;;;;;;38.05;34.47;;;30.60;23.20;;;;;;20911660;28;20191;-58
2023/07/16 20:56:15;;;;;;;7.13;4.43;;;30.50;23.60;;;;;;20910737;28;20105;-57
2023/07/16 21:06:15;;;;;;;5.22;4.07;;;30.40;23.60;;;;;;20919640;28;20037;-57
2023/07/16 21:16:16;;;;;;;5.45;3.90;;;30.20;23.50;;;;;;20924969;28;20099;-57
2023/07/16 21:26:17;;;;;;;5.22;3.67;;;30.10;23.70;;;;;;20923133;28;20117;-56
2023/07/16 21:36:17;;;;;;;5.90;3.33;;;29.80;24.10;;;;;;20923649;28;20040;-56
2023/07/16 21:46:18;;;;;;;6.25;3.47;;;29.60;24.20;;;;;;20923465;28;20075;-57
2023/07/16 21:56:19;;;;;;;7.10;3.75;;;29.60;24.30;;;;;;20922299;28;20132;-56
2023/07/16 22:06:20;;;;;;;5.65;3.85;;;29.30;24.80;;;;;;20920210;28;20075;-58
2023/07/16 22:16:22;;;;;;;7.85;3.90;;;29.10;25.00;;;;;;20918828;28;20490;-57
2023/07/16 22:26:22;;;;;;;6.53;3.55;;;29.00;25.10;;;;;;20919979;28;20079;-57
2023/07/16 22:36:23;;;;;;;5.40;3.92;;;28.90;25.30;;;;;;20919143;28;20041;-56
2023/07/16 22:46:24;;;;;;;8.60;6.90;;;28.80;25.50;;;;;;20918590;28;20041;-56
2023/07/16 22:56:26;;;;;;;6.88;4.50;;;28.60;26.30;;;;;;20918134;28;20052;-57
2023/07/16 23:06:26;;;;;;;8.48;6.75;;;28.50;25.90;;;;;;20915934;28;20045;-56
2023/07/16 23:16:27;;;;;;;13.30;10.57;;;28.50;26.10;;;;;;20916364;28;20479;-56
2023/07/16 23:26:29;;;;;;;;;;;28.30;26.40;;;;;;20914527;28;20142;-56
2023/07/16 23:36:30;;;;;;;6.25;3.85;;;28.10;27.00;;;;;;20914530;28;20366;-54
2023/07/16 23:46:30;;;;;;;;;;;27.90;27.70;;;;;;20914793;28;20491;-55
2023/07/16 23:56:31;;;;;;;5.45;3.80;;;27.60;27.40;;;;;;20913760;28;19921;-56
